sensor_id;sensor_type;location;lat;lon;timestamp;P1;durP1;ratioP1;P2;durP2;ratioP2
13897;SDS011;7019;50.766;4.474;2024-02-28T00:02:06;52.63;;;24.10;;
13897;SDS011;7019;50.766;4.474;2024-02-28T00:04:33;51.63;;;23.60;;
13897;SDS011;7019;50.766;4.474;2024-02-28T00:07:00;48.50;;;20.87;;
13897;SDS011;7019;50.766;4.474;2024-02-28T00:09:27;55.17;;;20.83;;
13897;SDS011;7019;50.766;4.474;2024-02-28T00:11:54;56.30;;;21.87;;
13897;SDS011;7019;50.766;4.474;2024-02-28T00:14:22;53.00;;;19.17;;
13897;SDS011;7019;50.766;4.474;2024-02-28T00:16:49;45.83;;;20.00;;
13897;SDS011;7019;50.766;4.474;2024-02-28T00:19:17;46.37;;;18.77;;
13897;SDS011;7019;50.766;4.474;2024-02-28T00:47:51;48.73;;;18.23;;
13897;SDS011;7019;50.766;4.474;2024-02-28T00:50:19;44.27;;;19.00;;
13897;SDS011;7019;50.766;4.474;2024-02-28T00:52:46;46.87;;;19.67;;
13897;SDS011;7019;50.766;4.474;2024-02-28T00:55:14;51.37;;;20.03;;
13897;SDS011;7019;50.766;4.474;2024-02-28T00:57:41;61.10;;;21.33;;
13897;SDS011;7019;50.766;4.474;2024-02-28T01:00:08;49.17;;;19.73;;
13897;SDS011;7019;50.766;4.474;2024-02-28T01:02:36;57.53;;;19.53;;
13897;SDS011;7019;50.766;4.474;2024-02-28T01:05:05;52.40;;;21.47;;
13897;SDS011;7019;50.766;4.474;2024-02-28T01:07:32;46.90;;;20.33;;
13897;SDS011;7019;50.766;4.474;2024-02-28T01:09:59;56.40;;;20.60;;
13897;SDS011;7019;50.766;4.474;2024-02-28T01:12:26;55.83;;;20.00;;
13897;SDS011;7019;50.766;4.474;2024-02-28T01:14:53;51.97;;;21.30;;
13897;SDS011;7019;50.766;4.474;2024-02-28T01:17:20;60.13;;;21.27;;
13897;SDS011;7019;50.766;4.474;2024-02-28T01:19:48;54.40;;;20.93;;
13897;SDS011;7019;50.766;4.474;2024-02-28T01:22:16;60.93;;;23.13;;
13897;SDS011;7019;50.766;4.474;2024-02-28T01:24:43;48.50;;;20.27;;
13897;SDS011;7019;50.766;4.474;2024-02-28T01:27:10;51.47;;;18.93;;
13897;SDS011;7019;50.766;4.474;2024-02-28T01:29:37;43.70;;;19.43;;
13897;SDS011;7019;50.766;4.474;2024-02-28T01:32:04;50.67;;;20.10;;
13897;SDS011;7019;50.766;4.474;2024-02-28T01:34:32;44.70;;;19.00;;
13897;SDS011;7019;50.766;4.474;2024-02-28T01:36:59;51.53;;;20.97;;
13897;SDS011;7019;50.766;4.474;2024-02-28T01:39:27;50.23;;;20.57;;
13897;SDS011;7019;50.766;4.474;2024-02-28T01:41:54;52.57;;;22.33;;
13897;SDS011;7019;50.766;4.474;2024-02-28T01:44:22;52.03;;;21.07;;
13897;SDS011;7019;50.766;4.474;2024-02-28T01:46:49;57.97;;;20.80;;
13897;SDS011;7019;50.766;4.474;2024-02-28T01:49:17;39.23;;;18.63;;
13897;SDS011;7019;50.766;4.474;2024-02-28T01:51:44;45.57;;;19.80;;
13897;SDS011;7019;50.766;4.474;2024-02-28T01:54:13;49.70;;;20.53;;
13897;SDS011;7019;50.766;4.474;2024-02-28T01:56:41;44.00;;;19.17;;
13897;SDS011;7019;50.766;4.474;2024-02-28T01:59:10;57.37;;;21.53;;
13897;SDS011;7019;50.766;4.474;2024-02-28T02:01:37;48.13;;;19.70;;
13897;SDS011;7019;50.766;4.474;2024-02-28T02:04:04;49.60;;;19.67;;
13897;SDS011;7019;50.766;4.474;2024-02-28T02:06:32;42.43;;;20.57;;
13897;SDS011;7019;50.766;4.474;2024-02-28T02:09:02;45.73;;;20.83;;
13897;SDS011;7019;50.766;4.474;2024-02-28T02:11:29;53.87;;;22.33;;
13897;SDS011;7019;50.766;4.474;2024-02-28T02:13:57;52.90;;;21.30;;
13897;SDS011;7019;50.766;4.474;2024-02-28T02:16:24;42.00;;;20.17;;
13897;SDS011;7019;50.766;4.474;2024-02-28T02:18:52;43.93;;;19.13;;
13897;SDS011;7019;50.766;4.474;2024-02-28T02:21:20;49.20;;;19.67;;
13897;SDS011;7019;50.766;4.474;2024-02-28T02:23:51;39.07;;;18.30;;
13897;SDS011;7019;50.766;4.474;2024-02-28T02:26:18;49.40;;;19.57;;
13897;SDS011;7019;50.766;4.474;2024-02-28T02:28:45;42.30;;;19.50;;
13897;SDS011;7019;50.766;4.474;2024-02-28T02:31:12;45.80;;;19.33;;
13897;SDS011;7019;50.766;4.474;2024-02-28T02:33:40;43.47;;;20.73;;
13897;SDS011;7019;50.766;4.474;2024-02-28T02:36:07;46.60;;;19.63;;
13897;SDS011;7019;50.766;4.474;2024-02-28T02:38:34;44.17;;;18.73;;
13897;SDS011;7019;50.766;4.474;2024-02-28T02:41:03;49.27;;;20.20;;
13897;SDS011;7019;50.766;4.474;2024-02-28T02:43:30;49.30;;;20.90;;
13897;SDS011;7019;50.766;4.474;2024-02-28T02:45:57;48.00;;;19.80;;
13897;SDS011;7019;50.766;4.474;2024-02-28T02:48:24;47.47;;;20.73;;
13897;SDS011;7019;50.766;4.474;2024-02-28T02:50:51;49.20;;;20.10;;
13897;SDS011;7019;50.766;4.474;2024-02-28T02:53:18;48.50;;;20.87;;
13897;SDS011;7019;50.766;4.474;2024-02-28T02:55:46;50.63;;;19.30;;
13897;SDS011;7019;50.766;4.474;2024-02-28T02:58:14;45.97;;;19.57;;
13897;SDS011;7019;50.766;4.474;2024-02-28T03:00:41;49.80;;;19.83;;
13897;SDS011;7019;50.766;4.474;2024-02-28T03:03:08;48.93;;;20.27;;
13897;SDS011;7019;50.766;4.474;2024-02-28T03:05:35;52.03;;;20.33;;
13897;SDS011;7019;50.766;4.474;2024-02-28T03:08:02;51.33;;;21.93;;
13897;SDS011;7019;50.766;4.474;2024-02-28T03:10:30;52.80;;;20.67;;
13897;SDS011;7019;50.766;4.474;2024-02-28T03:12:57;52.27;;;20.33;;
13897;SDS011;7019;50.766;4.474;2024-02-28T03:15:27;50.93;;;21.10;;
13897;SDS011;7019;50.766;4.474;2024-02-28T03:17:54;52.47;;;20.63;;
13897;SDS011;7019;50.766;4.474;2024-02-28T03:20:21;43.27;;;20.90;;
13897;SDS011;7019;50.766;4.474;2024-02-28T03:22:49;47.33;;;20.17;;
13897;SDS011;7019;50.766;4.474;2024-02-28T03:25:16;55.40;;;21.10;;
13897;SDS011;7019;50.766;4.474;2024-02-28T03:27:43;51.13;;;20.57;;
13897;SDS011;7019;50.766;4.474;2024-02-28T03:30:10;50.60;;;20.57;;
13897;SDS011;7019;50.766;4.474;2024-02-28T03:32:38;51.93;;;21.43;;
13897;SDS011;7019;50.766;4.474;2024-02-28T03:35:06;47.80;;;20.33;;
13897;SDS011;7019;50.766;4.474;2024-02-28T03:37:33;52.73;;;19.43;;
13897;SDS011;7019;50.766;4.474;2024-02-28T03:40:00;54.83;;;21.47;;
13897;SDS011;7019;50.766;4.474;2024-02-28T03:42:28;52.63;;;21.17;;
13897;SDS011;7019;50.766;4.474;2024-02-28T03:44:55;52.50;;;19.93;;
13897;SDS011;7019;50.766;4.474;2024-02-28T03:47:22;48.10;;;19.33;;
13897;SDS011;7019;50.766;4.474;2024-02-28T03:49:51;53.80;;;21.20;;
13897;SDS011;7019;50.766;4.474;2024-02-28T03:52:22;49.73;;;19.70;;
13897;SDS011;7019;50.766;4.474;2024-02-28T03:54:49;49.13;;;21.10;;
13897;SDS011;7019;50.766;4.474;2024-02-28T03:57:16;59.90;;;22.43;;
13897;SDS011;7019;50.766;4.474;2024-02-28T03:59:43;53.97;;;22.37;;
13897;SDS011;7019;50.766;4.474;2024-02-28T04:02:10;52.87;;;20.33;;
13897;SDS011;7019;50.766;4.474;2024-02-28T04:04:37;47.27;;;20.37;;
13897;SDS011;7019;50.766;4.474;2024-02-28T04:07:05;47.80;;;21.70;;
13897;SDS011;7019;50.766;4.474;2024-02-28T04:09:33;46.63;;;20.67;;
13897;SDS011;7019;50.766;4.474;2024-02-28T04:11:59;48.60;;;19.93;;
13897;SDS011;7019;50.766;4.474;2024-02-28T04:14:27;43.80;;;20.30;;
13897;SDS011;7019;50.766;4.474;2024-02-28T04:16:54;46.10;;;19.87;;
13897;SDS011;7019;50.766;4.474;2024-02-28T04:19:21;49.13;;;20.83;;
13897;SDS011;7019;50.766;4.474;2024-02-28T04:21:48;54.47;;;21.57;;
13897;SDS011;7019;50.766;4.474;2024-02-28T04:24:16;53.73;;;21.57;;
13897;SDS011;7019;50.766;4.474;2024-02-28T04:26:43;56.67;;;21.93;;
13897;SDS011;7019;50.766;4.474;2024-02-28T04:29:10;57.70;;;22.23;;
13897;SDS011;7019;50.766;4.474;2024-02-28T04:31:39;51.20;;;22.03;;
13897;SDS011;7019;50.766;4.474;2024-02-28T04:34:06;55.47;;;21.87;;
13897;SDS011;7019;50.766;4.474;2024-02-28T04:36:33;61.37;;;21.87;;
13897;SDS011;7019;50.766;4.474;2024-02-28T04:39:00;48.87;;;21.60;;
13897;SDS011;7019;50.766;4.474;2024-02-28T04:41:30;57.57;;;21.43;;
13897;SDS011;7019;50.766;4.474;2024-02-28T04:43:58;52.63;;;21.97;;
13897;SDS011;7019;50.766;4.474;2024-02-28T04:46:25;59.13;;;20.27;;
13897;SDS011;7019;50.766;4.474;2024-02-28T04:48:52;48.73;;;20.87;;
13897;SDS011;7019;50.766;4.474;2024-02-28T04:51:19;48.40;;;20.77;;
13897;SDS011;7019;50.766;4.474;2024-02-28T04:53:46;43.27;;;21.00;;
13897;SDS011;7019;50.766;4.474;2024-02-28T04:56:13;49.40;;;21.33;;
13897;SDS011;7019;50.766;4.474;2024-02-28T04:58:42;50.07;;;21.17;;
13897;SDS011;7019;50.766;4.474;2024-02-28T05:01:09;61.17;;;23.60;;
13897;SDS011;7019;50.766;4.474;2024-02-28T05:03:36;56.20;;;23.17;;
13897;SDS011;7019;50.766;4.474;2024-02-28T05:06:03;51.83;;;22.77;;
13897;SDS011;7019;50.766;4.474;2024-02-28T05:08:30;52.53;;;23.30;;
13897;SDS011;7019;50.766;4.474;2024-02-28T05:10:57;52.53;;;20.70;;
13897;SDS011;7019;50.766;4.474;2024-02-28T05:13:24;49.10;;;21.63;;
13897;SDS011;7019;50.766;4.474;2024-02-28T05:15:53;44.53;;;19.17;;
13897;SDS011;7019;50.766;4.474;2024-02-28T05:18:20;46.80;;;19.97;;
13897;SDS011;7019;50.766;4.474;2024-02-28T05:20:47;48.00;;;20.47;;
13897;SDS011;7019;50.766;4.474;2024-02-28T05:23:14;48.60;;;21.07;;
13897;SDS011;7019;50.766;4.474;2024-02-28T05:25:41;48.53;;;22.27;;
13897;SDS011;7019;50.766;4.474;2024-02-28T05:28:08;50.13;;;20.83;;
13897;SDS011;7019;50.766;4.474;2024-02-28T05:30:35;45.50;;;21.03;;
13897;SDS011;7019;50.766;4.474;2024-02-28T05:33:04;54.70;;;21.50;;
13897;SDS011;7019;50.766;4.474;2024-02-28T05:35:31;64.80;;;23.47;;
13897;SDS011;7019;50.766;4.474;2024-02-28T05:37:58;57.23;;;23.63;;
13897;SDS011;7019;50.766;4.474;2024-02-28T05:40:25;61.47;;;22.97;;
13897;SDS011;7019;50.766;4.474;2024-02-28T05:42:52;58.03;;;23.90;;
13897;SDS011;7019;50.766;4.474;2024-02-28T05:45:19;52.43;;;22.47;;
13897;SDS011;7019;50.766;4.474;2024-02-28T05:47:46;57.70;;;23.70;;
13897;SDS011;7019;50.766;4.474;2024-02-28T05:50:15;49.80;;;22.00;;
13897;SDS011;7019;50.766;4.474;2024-02-28T05:52:42;56.93;;;23.43;;
13897;SDS011;7019;50.766;4.474;2024-02-28T05:55:09;60.03;;;24.03;;
13897;SDS011;7019;50.766;4.474;2024-02-28T05:57:37;61.50;;;24.10;;
13897;SDS011;7019;50.766;4.474;2024-02-28T06:00:05;53.63;;;21.77;;
13897;SDS011;7019;50.766;4.474;2024-02-28T06:02:35;49.13;;;22.60;;
13897;SDS011;7019;50.766;4.474;2024-02-28T06:05:02;54.37;;;23.30;;
13897;SDS011;7019;50.766;4.474;2024-02-28T06:07:31;51.53;;;22.37;;
13897;SDS011;7019;50.766;4.474;2024-02-28T06:09:58;48.67;;;22.00;;
13897;SDS011;7019;50.766;4.474;2024-02-28T06:12:26;47.90;;;21.80;;
13897;SDS011;7019;50.766;4.474;2024-02-28T06:14:53;46.30;;;21.90;;
13897;SDS011;7019;50.766;4.474;2024-02-28T06:17:20;57.47;;;22.93;;
13897;SDS011;7019;50.766;4.474;2024-02-28T06:19:47;53.80;;;24.20;;
13897;SDS011;7019;50.766;4.474;2024-02-28T06:22:14;50.73;;;23.57;;
13897;SDS011;7019;50.766;4.474;2024-02-28T06:24:44;45.87;;;22.30;;
13897;SDS011;7019;50.766;4.474;2024-02-28T06:27:10;52.23;;;23.97;;
13897;SDS011;7019;50.766;4.474;2024-02-28T06:29:38;53.43;;;23.93;;
13897;SDS011;7019;50.766;4.474;2024-02-28T06:32:05;60.40;;;22.53;;
13897;SDS011;7019;50.766;4.474;2024-02-28T06:34:33;62.97;;;25.00;;
13897;SDS011;7019;50.766;4.474;2024-02-28T06:37:00;62.53;;;24.43;;
13897;SDS011;7019;50.766;4.474;2024-02-28T06:39:28;65.80;;;25.37;;
13897;SDS011;7019;50.766;4.474;2024-02-28T06:41:57;68.70;;;25.77;;
13897;SDS011;7019;50.766;4.474;2024-02-28T06:44:24;66.37;;;26.40;;
13897;SDS011;7019;50.766;4.474;2024-02-28T06:46:51;58.30;;;26.30;;
13897;SDS011;7019;50.766;4.474;2024-02-28T06:49:18;61.20;;;24.93;;
13897;SDS011;7019;50.766;4.474;2024-02-28T06:51:45;65.07;;;25.10;;
13897;SDS011;7019;50.766;4.474;2024-02-28T06:54:12;62.03;;;27.37;;
13897;SDS011;7019;50.766;4.474;2024-02-28T06:56:39;71.83;;;27.33;;
13897;SDS011;7019;50.766;4.474;2024-02-28T06:59:08;86.20;;;28.97;;
13897;SDS011;7019;50.766;4.474;2024-02-28T07:01:35;55.30;;;25.97;;
13897;SDS011;7019;50.766;4.474;2024-02-28T07:04:02;65.33;;;28.20;;
13897;SDS011;7019;50.766;4.474;2024-02-28T07:06:29;64.27;;;25.20;;
13897;SDS011;7019;50.766;4.474;2024-02-28T07:08:56;62.70;;;25.93;;
13897;SDS011;7019;50.766;4.474;2024-02-28T07:11:23;62.70;;;26.43;;
13897;SDS011;7019;50.766;4.474;2024-02-28T07:13:50;73.47;;;27.63;;
13897;SDS011;7019;50.766;4.474;2024-02-28T07:16:19;65.70;;;25.97;;
13897;SDS011;7019;50.766;4.474;2024-02-28T07:18:46;66.53;;;26.73;;
13897;SDS011;7019;50.766;4.474;2024-02-28T07:21:13;58.07;;;25.80;;
13897;SDS011;7019;50.766;4.474;2024-02-28T07:23:40;63.07;;;25.50;;
13897;SDS011;7019;50.766;4.474;2024-02-28T07:26:07;59.43;;;26.83;;
13897;SDS011;7019;50.766;4.474;2024-02-28T07:28:35;63.43;;;26.50;;
13897;SDS011;7019;50.766;4.474;2024-02-28T07:31:02;62.10;;;27.73;;
13897;SDS011;7019;50.766;4.474;2024-02-28T07:33:31;71.33;;;27.27;;
13897;SDS011;7019;50.766;4.474;2024-02-28T07:35:58;61.53;;;25.90;;
13897;SDS011;7019;50.766;4.474;2024-02-28T07:38:26;57.37;;;24.93;;
13897;SDS011;7019;50.766;4.474;2024-02-28T07:40:53;57.90;;;25.23;;
13897;SDS011;7019;50.766;4.474;2024-02-28T07:43:20;60.63;;;24.37;;
13897;SDS011;7019;50.766;4.474;2024-02-28T07:45:48;56.00;;;25.57;;
13897;SDS011;7019;50.766;4.474;2024-02-28T07:48:15;49.17;;;22.80;;
13897;SDS011;7019;50.766;4.474;2024-02-28T07:50:44;51.37;;;22.80;;
13897;SDS011;7019;50.766;4.474;2024-02-28T07:53:11;43.87;;;21.63;;
13897;SDS011;7019;50.766;4.474;2024-02-28T07:55:38;43.20;;;22.40;;
13897;SDS011;7019;50.766;4.474;2024-02-28T07:58:06;44.80;;;23.40;;
13897;SDS011;7019;50.766;4.474;2024-02-28T08:00:32;48.77;;;22.90;;
13897;SDS011;7019;50.766;4.474;2024-02-28T08:02:59;42.30;;;21.97;;
13897;SDS011;7019;50.766;4.474;2024-02-28T08:05:26;41.83;;;20.70;;
13897;SDS011;7019;50.766;4.474;2024-02-28T08:07:55;48.30;;;23.87;;
13897;SDS011;7019;50.766;4.474;2024-02-28T08:10:22;53.83;;;25.20;;
13897;SDS011;7019;50.766;4.474;2024-02-28T08:12:49;54.50;;;25.23;;
13897;SDS011;7019;50.766;4.474;2024-02-28T08:15:16;45.27;;;23.10;;
13897;SDS011;7019;50.766;4.474;2024-02-28T08:17:43;50.90;;;22.10;;
13897;SDS011;7019;50.766;4.474;2024-02-28T08:20:10;41.63;;;21.53;;
13897;SDS011;7019;50.766;4.474;2024-02-28T08:22:38;44.53;;;20.40;;
13897;SDS011;7019;50.766;4.474;2024-02-28T08:25:07;46.93;;;21.17;;
13897;SDS011;7019;50.766;4.474;2024-02-28T08:27:36;47.57;;;21.53;;
13897;SDS011;7019;50.766;4.474;2024-02-28T08:30:04;43.97;;;19.37;;
13897;SDS011;7019;50.766;4.474;2024-02-28T08:32:32;46.43;;;20.17;;
13897;SDS011;7019;50.766;4.474;2024-02-28T08:34:59;44.60;;;18.90;;
13897;SDS011;7019;50.766;4.474;2024-02-28T08:37:26;33.87;;;18.17;;
13897;SDS011;7019;50.766;4.474;2024-02-28T08:39:54;36.53;;;18.20;;
13897;SDS011;7019;50.766;4.474;2024-02-28T08:42:24;36.60;;;18.73;;
13897;SDS011;7019;50.766;4.474;2024-02-28T08:44:51;40.33;;;17.27;;
13897;SDS011;7019;50.766;4.474;2024-02-28T08:47:22;38.73;;;16.90;;
13897;SDS011;7019;50.766;4.474;2024-02-28T08:49:50;45.73;;;17.87;;
13897;SDS011;7019;50.766;4.474;2024-02-28T08:52:17;42.60;;;18.20;;
13897;SDS011;7019;50.766;4.474;2024-02-28T08:54:44;36.10;;;16.80;;
13897;SDS011;7019;50.766;4.474;2024-02-28T08:57:11;36.03;;;16.37;;
13897;SDS011;7019;50.766;4.474;2024-02-28T08:59:40;38.00;;;17.00;;
13897;SDS011;7019;50.766;4.474;2024-02-28T09:02:07;35.30;;;16.97;;
13897;SDS011;7019;50.766;4.474;2024-02-28T09:04:36;33.47;;;15.80;;
13897;SDS011;7019;50.766;4.474;2024-02-28T09:07:03;35.27;;;15.50;;
13897;SDS011;7019;50.766;4.474;2024-02-28T09:09:30;34.00;;;16.20;;
13897;SDS011;7019;50.766;4.474;2024-02-28T09:12:01;35.87;;;15.20;;
13897;SDS011;7019;50.766;4.474;2024-02-28T09:14:29;33.80;;;15.10;;
13897;SDS011;7019;50.766;4.474;2024-02-28T09:16:57;28.10;;;13.83;;
13897;SDS011;7019;50.766;4.474;2024-02-28T09:19:28;31.83;;;14.90;;
13897;SDS011;7019;50.766;4.474;2024-02-28T09:21:55;31.13;;;13.63;;
13897;SDS011;7019;50.766;4.474;2024-02-28T09:24:22;23.93;;;13.07;;
13897;SDS011;7019;50.766;4.474;2024-02-28T09:26:49;26.83;;;13.53;;
13897;SDS011;7019;50.766;4.474;2024-02-28T09:29:16;29.07;;;13.23;;
13897;SDS011;7019;50.766;4.474;2024-02-28T09:31:43;25.87;;;11.90;;
13897;SDS011;7019;50.766;4.474;2024-02-28T09:34:12;27.40;;;13.50;;
13897;SDS011;7019;50.766;4.474;2024-02-28T09:36:42;21.30;;;10.97;;
13897;SDS011;7019;50.766;4.474;2024-02-28T09:39:10;20.27;;;10.37;;
13897;SDS011;7019;50.766;4.474;2024-02-28T09:41:38;21.00;;;10.83;;
13897;SDS011;7019;50.766;4.474;2024-02-28T09:44:06;18.73;;;9.70;;
13897;SDS011;7019;50.766;4.474;2024-02-28T09:46:33;21.87;;;10.23;;
13897;SDS011;7019;50.766;4.474;2024-02-28T09:49:01;17.70;;;10.17;;
13897;SDS011;7019;50.766;4.474;2024-02-28T09:51:31;23.13;;;11.20;;
13897;SDS011;7019;50.766;4.474;2024-02-28T09:54:00;17.00;;;10.47;;
13897;SDS011;7019;50.766;4.474;2024-02-28T09:56:27;22.33;;;10.93;;
13897;SDS011;7019;50.766;4.474;2024-02-28T09:58:54;21.77;;;11.10;;
13897;SDS011;7019;50.766;4.474;2024-02-28T10:01:22;24.37;;;10.40;;
13897;SDS011;7019;50.766;4.474;2024-02-28T10:03:50;24.13;;;10.83;;
13897;SDS011;7019;50.766;4.474;2024-02-28T10:06:18;18.57;;;10.53;;
13897;SDS011;7019;50.766;4.474;2024-02-28T10:08:47;17.30;;;9.90;;
13897;SDS011;7019;50.766;4.474;2024-02-28T10:11:17;15.83;;;8.53;;
13897;SDS011;7019;50.766;4.474;2024-02-28T10:13:46;16.43;;;9.53;;
13897;SDS011;7019;50.766;4.474;2024-02-28T10:16:13;16.10;;;9.53;;
13897;SDS011;7019;50.766;4.474;2024-02-28T10:18:41;19.37;;;9.07;;
13897;SDS011;7019;50.766;4.474;2024-02-28T10:21:09;14.17;;;8.53;;
13897;SDS011;7019;50.766;4.474;2024-02-28T10:23:37;19.07;;;9.57;;
13897;SDS011;7019;50.766;4.474;2024-02-28T10:26:08;19.43;;;9.33;;
13897;SDS011;7019;50.766;4.474;2024-02-28T10:28:36;17.23;;;9.20;;
13897;SDS011;7019;50.766;4.474;2024-02-28T10:31:04;17.27;;;8.63;;
13897;SDS011;7019;50.766;4.474;2024-02-28T10:33:32;13.63;;;8.27;;
13897;SDS011;7019;50.766;4.474;2024-02-28T10:36:01;17.37;;;8.90;;
13897;SDS011;7019;50.766;4.474;2024-02-28T10:38:30;16.60;;;9.03;;
13897;SDS011;7019;50.766;4.474;2024-02-28T10:40:58;12.37;;;8.63;;
13897;SDS011;7019;50.766;4.474;2024-02-28T10:43:29;14.47;;;8.27;;
13897;SDS011;7019;50.766;4.474;2024-02-28T10:45:56;20.37;;;9.77;;
13897;SDS011;7019;50.766;4.474;2024-02-28T10:48:24;16.50;;;9.30;;
13897;SDS011;7019;50.766;4.474;2024-02-28T10:50:52;17.37;;;8.70;;
13897;SDS011;7019;50.766;4.474;2024-02-28T10:53:21;15.13;;;9.00;;
13897;SDS011;7019;50.766;4.474;2024-02-28T10:55:49;16.87;;;9.13;;
13897;SDS011;7019;50.766;4.474;2024-02-28T10:58:17;15.00;;;9.43;;
13897;SDS011;7019;50.766;4.474;2024-02-28T11:00:49;20.07;;;8.83;;
13897;SDS011;7019;50.766;4.474;2024-02-28T11:03:17;20.40;;;9.10;;
13897;SDS011;7019;50.766;4.474;2024-02-28T11:05:46;14.83;;;8.57;;
13897;SDS011;7019;50.766;4.474;2024-02-28T11:08:19;15.87;;;8.17;;
13897;SDS011;7019;50.766;4.474;2024-02-28T11:10:54;15.47;;;8.30;;
13897;SDS011;7019;50.766;4.474;2024-02-28T11:13:21;14.93;;;8.10;;
13897;SDS011;7019;50.766;4.474;2024-02-28T11:15:50;13.43;;;8.23;;
13897;SDS011;7019;50.766;4.474;2024-02-28T11:18:17;17.47;;;8.63;;
13897;SDS011;7019;50.766;4.474;2024-02-28T11:20:44;14.93;;;7.63;;
13897;SDS011;7019;50.766;4.474;2024-02-28T11:23:13;14.20;;;8.20;;
13897;SDS011;7019;50.766;4.474;2024-02-28T11:25:41;16.67;;;7.20;;
13897;SDS011;7019;50.766;4.474;2024-02-28T11:28:08;14.27;;;6.83;;
13897;SDS011;7019;50.766;4.474;2024-02-28T11:30:35;16.23;;;8.07;;
13897;SDS011;7019;50.766;4.474;2024-02-28T11:33:04;13.80;;;7.37;;
13897;SDS011;7019;50.766;4.474;2024-02-28T11:35:33;14.63;;;7.60;;
13897;SDS011;7019;50.766;4.474;2024-02-28T11:38:00;11.60;;;7.10;;
13897;SDS011;7019;50.766;4.474;2024-02-28T11:40:29;13.23;;;7.00;;
13897;SDS011;7019;50.766;4.474;2024-02-28T11:42:56;14.80;;;7.47;;
13897;SDS011;7019;50.766;4.474;2024-02-28T11:45:24;12.47;;;7.37;;
13897;SDS011;7019;50.766;4.474;2024-02-28T11:47:51;13.03;;;7.20;;
13897;SDS011;7019;50.766;4.474;2024-02-28T11:50:20;15.93;;;7.00;;
13897;SDS011;7019;50.766;4.474;2024-02-28T11:52:48;10.13;;;7.67;;
13897;SDS011;7019;50.766;4.474;2024-02-28T11:55:15;11.63;;;7.40;;
13897;SDS011;7019;50.766;4.474;2024-02-28T11:57:42;15.10;;;7.50;;
13897;SDS011;7019;50.766;4.474;2024-02-28T12:00:12;12.80;;;7.23;;
13897;SDS011;7019;50.766;4.474;2024-02-28T12:02:39;11.20;;;7.33;;
13897;SDS011;7019;50.766;4.474;2024-02-28T12:05:07;13.33;;;7.00;;
13897;SDS011;7019;50.766;4.474;2024-02-28T12:07:36;12.77;;;7.30;;
13897;SDS011;7019;50.766;4.474;2024-02-28T12:10:03;14.23;;;6.70;;
13897;SDS011;7019;50.766;4.474;2024-02-28T12:12:33;12.37;;;5.97;;
13897;SDS011;7019;50.766;4.474;2024-02-28T12:15:00;10.80;;;5.97;;
13897;SDS011;7019;50.766;4.474;2024-02-28T12:17:30;8.30;;;5.83;;
13897;SDS011;7019;50.766;4.474;2024-02-28T12:19:58;11.13;;;6.03;;
13897;SDS011;7019;50.766;4.474;2024-02-28T12:22:25;9.30;;;5.93;;
13897;SDS011;7019;50.766;4.474;2024-02-28T12:24:54;7.70;;;5.10;;
13897;SDS011;7019;50.766;4.474;2024-02-28T12:27:21;10.13;;;6.20;;
13897;SDS011;7019;50.766;4.474;2024-02-28T12:29:48;6.97;;;5.23;;
13897;SDS011;7019;50.766;4.474;2024-02-28T12:32:15;10.47;;;5.00;;
13897;SDS011;7019;50.766;4.474;2024-02-28T12:34:43;10.00;;;5.17;;
13897;SDS011;7019;50.766;4.474;2024-02-28T12:37:10;6.77;;;4.30;;
13897;SDS011;7019;50.766;4.474;2024-02-28T12:39:37;7.17;;;4.10;;
13897;SDS011;7019;50.766;4.474;2024-02-28T12:42:05;6.53;;;4.83;;
13897;SDS011;7019;50.766;4.474;2024-02-28T12:44:33;7.03;;;4.57;;
13897;SDS011;7019;50.766;4.474;2024-02-28T12:47:01;6.07;;;3.63;;
13897;SDS011;7019;50.766;4.474;2024-02-28T12:49:28;5.33;;;4.07;;
13897;SDS011;7019;50.766;4.474;2024-02-28T12:51:55;8.17;;;3.83;;
13897;SDS011;7019;50.766;4.474;2024-02-28T12:54:22;9.23;;;4.10;;
13897;SDS011;7019;50.766;4.474;2024-02-28T12:56:50;5.20;;;3.63;;
13897;SDS011;7019;50.766;4.474;2024-02-28T12:59:18;5.67;;;3.93;;
13897;SDS011;7019;50.766;4.474;2024-02-28T13:01:45;7.23;;;3.47;;
13897;SDS011;7019;50.766;4.474;2024-02-28T13:04:13;5.80;;;3.40;;
13897;SDS011;7019;50.766;4.474;2024-02-28T13:06:40;6.70;;;3.90;;
13897;SDS011;7019;50.766;4.474;2024-02-28T13:09:07;5.77;;;3.77;;
13897;SDS011;7019;50.766;4.474;2024-02-28T13:11:37;5.43;;;3.20;;
13897;SDS011;7019;50.766;4.474;2024-02-28T13:14:04;6.20;;;3.10;;
13897;SDS011;7019;50.766;4.474;2024-02-28T13:16:34;6.67;;;3.63;;
13897;SDS011;7019;50.766;4.474;2024-02-28T13:19:02;3.97;;;2.90;;
13897;SDS011;7019;50.766;4.474;2024-02-28T13:21:30;5.50;;;2.70;;
13897;SDS011;7019;50.766;4.474;2024-02-28T13:23:58;4.20;;;2.63;;
13897;SDS011;7019;50.766;4.474;2024-02-28T13:26:26;7.40;;;3.40;;
13897;SDS011;7019;50.766;4.474;2024-02-28T13:28:53;7.60;;;3.10;;
13897;SDS011;7019;50.766;4.474;2024-02-28T13:31:20;5.17;;;2.80;;
13897;SDS011;7019;50.766;4.474;2024-02-28T13:33:48;5.73;;;2.70;;
13897;SDS011;7019;50.766;4.474;2024-02-28T13:36:15;5.00;;;2.47;;
13897;SDS011;7019;50.766;4.474;2024-02-28T13:38:42;8.83;;;2.80;;
13897;SDS011;7019;50.766;4.474;2024-02-28T13:41:10;4.63;;;2.67;;
13897;SDS011;7019;50.766;4.474;2024-02-28T13:43:37;24.33;;;7.60;;
13897;SDS011;7019;50.766;4.474;2024-02-28T13:46:04;73.60;;;22.43;;
13897;SDS011;7019;50.766;4.474;2024-02-28T13:48:31;33.67;;;11.93;;
13897;SDS011;7019;50.766;4.474;2024-02-28T13:51:00;6.10;;;3.23;;
13897;SDS011;7019;50.766;4.474;2024-02-28T13:53:27;13.40;;;3.67;;
13897;SDS011;7019;50.766;4.474;2024-02-28T13:55:54;18.33;;;5.87;;
13897;SDS011;7019;50.766;4.474;2024-02-28T13:58:21;24.87;;;8.90;;
13897;SDS011;7019;50.766;4.474;2024-02-28T14:00:48;25.42;;;10.15;;
13897;SDS011;7019;50.766;4.474;2024-02-28T14:03:15;6.83;;;4.60;;
13897;SDS011;7019;50.766;4.474;2024-02-28T14:05:42;6.70;;;3.73;;
13897;SDS011;7019;50.766;4.474;2024-02-28T14:08:11;6.00;;;3.63;;
13897;SDS011;7019;50.766;4.474;2024-02-28T14:10:38;5.17;;;3.00;;
13897;SDS011;7019;50.766;4.474;2024-02-28T14:13:06;4.30;;;3.17;;
13897;SDS011;7019;50.766;4.474;2024-02-28T14:15:33;4.53;;;2.90;;
13897;SDS011;7019;50.766;4.474;2024-02-28T14:18:01;7.13;;;3.53;;
13897;SDS011;7019;50.766;4.474;2024-02-28T14:20:29;4.90;;;2.43;;
13897;SDS011;7019;50.766;4.474;2024-02-28T14:22:56;3.17;;;2.47;;
13897;SDS011;7019;50.766;4.474;2024-02-28T14:25:25;3.27;;;2.53;;
13897;SDS011;7019;50.766;4.474;2024-02-28T14:27:53;2.53;;;2.33;;
13897;SDS011;7019;50.766;4.474;2024-02-28T14:30:20;2.57;;;2.37;;
13897;SDS011;7019;50.766;4.474;2024-02-28T14:32:49;3.07;;;2.13;;
13897;SDS011;7019;50.766;4.474;2024-02-28T14:35:16;4.37;;;2.27;;
13897;SDS011;7019;50.766;4.474;2024-02-28T14:37:43;6.67;;;3.00;;
13897;SDS011;7019;50.766;4.474;2024-02-28T14:40:11;3.97;;;2.07;;
13897;SDS011;7019;50.766;4.474;2024-02-28T14:42:40;8.10;;;2.67;;
13897;SDS011;7019;50.766;4.474;2024-02-28T14:45:08;5.60;;;2.17;;
13897;SDS011;7019;50.766;4.474;2024-02-28T14:47:36;3.97;;;2.40;;
13897;SDS011;7019;50.766;4.474;2024-02-28T14:50:03;3.97;;;2.13;;
13897;SDS011;7019;50.766;4.474;2024-02-28T14:52:34;3.27;;;2.23;;
13897;SDS011;7019;50.766;4.474;2024-02-28T14:55:02;3.23;;;2.13;;
13897;SDS011;7019;50.766;4.474;2024-02-28T14:57:30;2.17;;;1.87;;
13897;SDS011;7019;50.766;4.474;2024-02-28T14:59:58;5.03;;;2.83;;
13897;SDS011;7019;50.766;4.474;2024-02-28T15:02:26;6.20;;;2.13;;
13897;SDS011;7019;50.766;4.474;2024-02-28T15:04:53;2.83;;;2.00;;
13897;SDS011;7019;50.766;4.474;2024-02-28T15:07:20;3.40;;;2.13;;
13897;SDS011;7019;50.766;4.474;2024-02-28T15:09:47;4.00;;;2.43;;